Time;durP1;ratioP1;P1;durP2;ratioP2;P2;SDS_P1;SDS_P2;PMS_P1;PMS_P2;Temp;Humidity;BMP_temperature;BMP_pressure;BME280_temperature;BME280_humidity;BME280_pressure;Samples;Min_cycle;Max_cycle;Signal;HPM_P1;HPM_P2
2022/08/03 00:02:15;;;;;;;9.80;4.75;;;20.70;99.90;;;;;;5076896;28;20460;-76
2022/08/03 00:04:41;;;;;;;10.57;4.85;;;20.70;99.90;;;;;;5076526;28;20027;-75
2022/08/03 00:07:07;;;;;;;9.65;4.40;;;20.60;99.90;;;;;;5088981;28;20629;-76
2022/08/03 00:09:32;;;;;;;9.02;4.38;;;20.60;99.90;;;;;;5081627;28;20111;-76
2022/08/03 00:11:58;;;;;;;12.73;5.13;;;20.60;99.90;;;;;;5088008;28;20082;-76
2022/08/03 00:14:24;;;;;;;8.95;4.32;;;20.60;99.90;;;;;;5099286;28;20063;-76
2022/08/03 00:16:49;;;;;;;10.27;4.28;;;20.70;99.90;;;;;;5107733;28;20460;-76
2022/08/03 00:19:15;;;;;;;8.10;4.50;;;20.70;99.90;;;;;;5098944;28;20114;-76
2022/08/03 00:21:40;;;;;;;9.98;5.20;;;20.70;99.90;;;;;;5091492;28;20450;-74
2022/08/03 00:24:06;;;;;;;10.45;5.40;;;20.80;99.90;;;;;;5091748;28;20048;-76
2022/08/03 00:26:32;;;;;;;10.27;5.43;;;20.80;99.90;;;;;;5092143;28;20044;-76
2022/08/03 00:28:58;;;;;;;11.95;5.07;;;20.80;99.90;;;;;;5089721;28;20059;-76
2022/08/03 00:31:23;;;;;;;12.38;5.38;;;20.70;99.90;;;;;;5095575;28;20418;-76
2022/08/03 00:33:49;;;;;;;10.63;5.72;;;20.70;99.90;;;;;;5110086;28;20043;-76
2022/08/03 00:36:14;;;;;;;11.13;6.18;;;20.70;99.90;;;;;;5109468;28;20074;-76
2022/08/03 00:38:40;;;;;;;11.05;5.90;;;20.70;99.90;;;;;;5080750;28;20046;-76
2022/08/03 00:41:06;;;;;;;13.85;5.72;;;20.70;99.90;;;;;;5083617;28;20044;-76
2022/08/03 00:43:31;;;;;;;11.35;5.60;;;20.70;99.90;;;;;;5085188;28;20063;-76
2022/08/03 00:45:57;;;;;;;8.35;6.20;;;20.60;99.90;;;;;;5083878;28;20505;-76
2022/08/03 00:48:24;;;;;;;9.77;5.80;;;20.60;99.90;;;;;;5107636;28;20115;-76
2022/08/03 00:50:50;;;;;;;;;;;20.50;99.90;;;;;;5081252;28;20089;-76
2022/08/03 00:53:16;;;;;;;8.80;5.47;;;20.40;99.90;;;;;;5079827;28;20386;-76
2022/08/03 00:55:42;;;;;;;10.48;5.53;;;20.40;99.90;;;;;;5086299;28;20040;-76
2022/08/03 00:58:10;;;;;;;9.55;5.72;;;20.30;99.90;;;;;;5094437;28;20618;-76
2022/08/03 01:00:37;;;;;;;;;;;20.30;99.90;;;;;;5104325;28;20050;-76
2022/08/03 01:03:07;;;;;;;10.30;5.68;;;20.20;99.90;;;;;;5075276;28;20331;-76
2022/08/03 01:05:53;;;;;;;11.23;5.65;;;20.20;99.90;;;;;;5071865;28;20274;-76
2022/08/03 01:08:47;;;;;;;8.63;6.00;;;20.30;99.90;;;;;;5076706;28;20525;-76
2022/08/03 01:11:28;;;;;;;9.98;6.18;;;20.20;99.90;;;;;;5084555;28;20096;-76
2022/08/03 01:14:16;;;;;;;8.20;5.80;;;20.20;99.90;;;;;;5095020;28;20051;-76
2022/08/03 01:17:42;;;;;;;8.35;5.82;;;20.20;99.90;;;;;;5095370;28;20071;-76
2022/08/03 01:20:13;;;;;;;10.00;5.85;;;20.20;99.90;;;;;;4998218;28;20061;-76
2022/08/03 01:23:09;;;;;;;12.20;5.50;;;20.20;99.90;;;;;;5000871;28;20052;-76
2022/08/03 01:25:53;;;;;;;6.55;5.13;;;20.30;99.90;;;;;;5078397;28;20048;-76
2022/08/03 01:28:57;;;;;;;15.18;5.90;;;20.30;99.90;;;;;;5076473;28;20048;-76
2022/08/03 01:31:27;;;;;;;9.85;5.28;;;20.30;99.90;;;;;;5033279;28;20500;-76
2022/08/03 01:33:59;;;;;;;9.10;5.15;;;20.40;99.90;;;;;;5104644;28;20371;-76
2022/08/03 01:36:34;;;;;;;13.88;5.70;;;20.40;99.90;;;;;;5094306;28;20085;-76
2022/08/03 01:39:02;;;;;;;11.48;5.38;;;20.40;99.90;;;;;;5092586;28;20047;-76
2022/08/03 01:41:32;;;;;;;9.35;5.43;;;20.50;99.90;;;;;;5084044;28;20497;-76
2022/08/03 01:44:02;;;;;;;12.15;5.57;;;20.50;99.90;;;;;;5099411;28;20044;-76
2022/08/03 01:46:30;;;;;;;11.63;5.13;;;20.50;99.90;;;;;;5092833;28;20062;-76
2022/08/03 01:48:57;;;;;;;11.23;4.63;;;20.50;99.90;;;;;;5086060;28;20047;-76
2022/08/03 01:51:24;;;;;;;12.45;5.45;;;20.50;99.90;;;;;;5085809;28;20379;-76
2022/08/03 01:53:53;;;;;;;10.65;4.93;;;20.50;99.90;;;;;;5091108;28;20100;-76
2022/08/03 01:56:21;;;;;;;12.10;5.45;;;20.50;99.90;;;;;;5107411;28;20962;-76
2022/08/03 01:58:48;;;;;;;14.80;5.20;;;20.60;99.90;;;;;;5091937;28;20051;-75
2022/08/03 02:01:15;;;;;;;11.88;5.03;;;20.60;99.90;;;;;;5077199;28;20075;-76
2022/08/03 02:03:42;;;;;;;;;;;20.50;99.90;;;;;;5099160;28;20047;-75
2022/08/03 02:06:12;;;;;;;13.40;4.85;;;20.50;99.90;;;;;;5102964;28;20476;-76
2022/08/03 02:08:40;;;;;;;9.32;4.60;;;20.50;99.90;;;;;;5084633;28;20039;-76
2022/08/03 02:11:06;;;;;;;8.98;4.30;;;20.50;99.90;;;;;;5079864;28;20056;-76
2022/08/03 02:13:33;;;;;;;9.95;4.40;;;20.50;99.90;;;;;;5081475;28;20047;-76
2022/08/03 02:16:02;;;;;;;7.10;4.20;;;20.50;99.90;;;;;;5083202;28;20505;-76
2022/08/03 02:18:29;;;;;;;6.78;4.30;;;20.50;99.90;;;;;;5095084;28;20044;-76
2022/08/03 02:20:55;;;;;;;;;;;20.50;99.90;;;;;;5093652;28;20042;-76
2022/08/03 02:23:21;;;;;;;9.70;4.13;;;20.40;99.90;;;;;;5101894;28;20060;-76
2022/08/03 02:25:52;;;;;;;8.68;4.15;;;20.40;99.90;;;;;;5092923;28;20530;-76
2022/08/03 02:28:24;;;;;;;12.88;4.43;;;20.40;99.90;;;;;;5107919;28;20127;-76
2022/08/03 02:30:53;;;;;;;10.30;4.03;;;20.30;99.90;;;;;;5092843;28;20040;-76
2022/08/03 02:33:27;;;;;;;11.43;4.40;;;20.30;99.90;;;;;;5096338;28;20051;-76
2022/08/03 02:35:53;;;;;;;11.93;4.65;;;20.30;99.90;;;;;;5083903;28;20436;-76
2022/08/03 02:38:22;;;;;;;9.70;4.25;;;20.20;99.90;;;;;;5100296;28;20054;-76
2022/08/03 02:40:49;;;;;;;10.40;4.38;;;20.20;99.90;;;;;;5090813;28;20473;-76
2022/08/03 02:43:19;;;;;;;8.23;3.92;;;20.20;99.90;;;;;;5083411;28;20062;-76
2022/08/03 02:45:48;;;;;;;8.15;4.30;;;20.10;99.90;;;;;;5074570;28;20036;-76
2022/08/03 02:48:17;;;;;;;12.02;4.68;;;20.20;99.90;;;;;;5094755;28;20231;-76
2022/08/03 02:50:44;;;;;;;11.85;4.60;;;20.10;99.90;;;;;;5093552;28;20043;-76
2022/08/03 02:53:10;;;;;;;;;;;20.10;99.90;;;;;;5090819;28;20048;-76
2022/08/03 02:55:37;;;;;;;8.30;4.22;;;20.10;99.90;;;;;;5076710;28;19968;-76
2022/08/03 02:58:05;;;;;;;10.95;4.80;;;20.10;99.90;;;;;;5105439;28;20043;-76
2022/08/03 03:00:33;;;;;;;8.73;4.60;;;20.10;99.90;;;;;;5089725;28;20092;-76
2022/08/03 03:03:01;;;;;;;8.82;4.53;;;20.10;99.90;;;;;;5079984;28;20068;-76
2022/08/03 03:05:27;;;;;;;9.88;4.45;;;20.10;99.90;;;;;;5101438;28;20040;-76
2022/08/03 03:07:54;;;;;;;11.07;4.43;;;20.10;99.90;;;;;;5072047;28;20047;-76
2022/08/03 03:10:24;;;;;;;9.80;4.70;;;20.10;99.90;;;;;;5097679;28;20135;-76
2022/08/03 03:12:54;;;;;;;10.48;4.38;;;20.10;99.90;;;;;;5095653;28;20117;-76
2022/08/03 03:15:20;;;;;;;9.00;4.63;;;20.00;99.90;;;;;;5077722;28;20064;-76
2022/08/03 03:17:48;;;;;;;8.98;4.35;;;20.00;99.90;;;;;;5083143;28;20098;-76
2022/08/03 03:20:15;;;;;;;9.50;4.70;;;20.00;99.90;;;;;;5096974;28;20048;-76
2022/08/03 03:22:41;;;;;;;11.10;4.93;;;20.10;99.90;;;;;;5093183;28;20040;-76
2022/08/03 03:25:07;;;;;;;10.68;4.95;;;20.10;99.90;;;;;;5090173;28;20047;-76
2022/08/03 03:27:33;;;;;;;10.88;4.32;;;20.00;99.90;;;;;;5078899;28;20190;-76
2022/08/03 03:29:59;;;;;;;10.05;4.60;;;20.00;99.90;;;;;;5089528;28;20486;-76
2022/08/03 03:32:29;;;;;;;9.55;4.30;;;20.00;99.90;;;;;;5076474;28;20058;-76
2022/08/03 03:34:58;;;;;;;9.38;4.53;;;20.00;99.90;;;;;;5090009;28;20037;-77
2022/08/03 03:37:25;;;;;;;9.65;4.22;;;20.00;99.90;;;;;;5093047;28;20182;-76
2022/08/03 03:39:52;;;;;;;;;;;20.00;99.90;;;;;;5084170;28;20134;-76
2022/08/03 03:42:17;;;;;;;;;;;19.90;99.90;;;;;;5093175;28;19924;-75
2022/08/03 03:44:43;;;;;;;8.90;4.15;;;19.90;99.90;;;;;;5091916;28;19926;-76
2022/08/03 03:47:09;;;;;;;10.40;4.72;;;19.80;99.90;;;;;;5077979;28;20328;-76
2022/08/03 03:49:35;;;;;;;8.80;3.72;;;19.80;99.90;;;;;;5089523;28;20366;-76
2022/08/03 03:52:01;;;;;;;13.33;4.57;;;19.90;99.90;;;;;;5100418;28;20125;-76
2022/08/03 03:54:41;;;;;;;10.88;4.15;;;19.90;99.90;;;;;;5087728;28;20116;-76
2022/08/03 03:57:07;;;;;;;11.15;4.63;;;19.90;99.90;;;;;;5073335;28;20064;-76
2022/08/03 03:59:39;;;;;;;9.63;4.30;;;19.80;99.90;;;;;;5080949;28;20063;-76
2022/08/03 04:02:09;;;;;;;12.82;4.07;;;19.80;99.90;;;;;;5073239;28;20567;-76
2022/08/03 04:13:11;;;;;;;14.45;4.75;;;19.60;99.90;;;;;;5102488;28;20949;-76
2022/08/03 04:15:41;;;;;;;10.63;4.55;;;19.60;99.90;;;;;;5102751;28;20493;-76
2022/08/03 04:18:11;;;;;;;10.50;4.15;;;19.60;99.90;;;;;;5075937;28;20052;-76
2022/08/03 04:20:39;;;;;;;10.02;4.15;;;19.60;99.90;;;;;;5071509;28;20086;-76
2022/08/03 04:23:06;;;;;;;10.43;4.70;;;19.50;99.90;;;;;;5086193;28;20568;-76
2022/08/03 04:25:36;;;;;;;9.65;4.78;;;19.50;99.90;;;;;;5073644;28;20499;-76
2022/08/03 04:28:03;;;;;;;10.35;5.05;;;19.60;99.90;;;;;;5091010;28;20040;-76
2022/08/03 04:30:30;;;;;;;12.55;5.00;;;19.60;99.90;;;;;;5096829;28;20045;-76
2022/08/03 04:32:56;;;;;;;14.00;5.20;;;19.60;99.90;;;;;;5083590;28;20508;-76
2022/08/03 04:35:26;;;;;;;9.40;4.10;;;19.60;99.90;;;;;;5107686;28;20440;-76
2022/08/03 04:37:55;;;;;;;13.35;4.70;;;19.70;99.90;;;;;;5089072;28;20040;-76
2022/08/03 04:40:33;;;;;;;8.10;4.60;;;19.70;99.90;;;;;;5071660;28;20165;-76
2022/08/03 04:42:59;;;;;;;10.95;4.68;;;19.70;99.90;;;;;;5077791;28;20099;-76
2022/08/03 04:45:27;;;;;;;10.85;4.78;;;19.70;99.90;;;;;;5094270;28;20042;-76
2022/08/03 04:47:53;;;;;;;7.97;4.10;;;19.70;99.90;;;;;;5099695;28;20118;-76
2022/08/03 04:50:21;;;;;;;11.27;5.03;;;19.70;99.90;;;;;;5100964;28;20035;-76
2022/08/03 04:52:47;;;;;;;10.50;4.43;;;19.70;99.90;;;;;;5081698;28;20431;-76
2022/08/03 04:55:28;;;;;;;11.32;5.22;;;19.70;99.90;;;;;;5096445;28;20100;-76
2022/08/03 04:57:54;;;;;;;8.23;4.78;;;19.80;99.90;;;;;;5088399;28;20052;-76
2022/08/03 05:00:20;;;;;;;8.70;4.88;;;19.80;99.90;;;;;;5101426;28;20140;-76
2022/08/03 05:02:45;;;;;;;8.57;4.93;;;19.80;99.90;;;;;;5071591;28;20658;-76
2022/08/03 05:05:11;;;;;;;9.80;4.90;;;19.90;99.90;;;;;;5097107;28;20130;-76
2022/08/03 05:07:37;;;;;;;13.45;5.20;;;19.90;99.90;;;;;;5088868;28;20048;-76
2022/08/03 05:10:06;;;;;;;9.75;5.28;;;19.90;99.90;;;;;;5098814;28;20036;-76
2022/08/03 05:12:31;;;;;;;11.45;5.10;;;19.80;99.90;;;;;;5091752;28;20052;-76
2022/08/03 05:14:57;;;;;;;9.63;5.40;;;19.90;99.90;;;;;;5090158;28;20044;-76
2022/08/03 05:17:22;;;;;;;10.15;5.47;;;20.00;99.90;;;;;;5071326;28;20126;-76
2022/08/03 05:19:48;;;;;;;13.77;5.28;;;20.00;99.90;;;;;;5073495;28;20036;-76
2022/08/03 05:22:13;;;;;;;11.60;5.32;;;20.00;99.90;;;;;;5091709;28;20047;-76
2022/08/03 05:24:39;;;;;;;10.27;5.28;;;20.10;99.90;;;;;;5071249;28;20048;-76
2022/08/03 05:27:05;;;;;;;11.35;5.78;;;20.20;99.90;;;;;;5085893;28;20164;-76
2022/08/03 05:29:30;;;;;;;9.60;5.70;;;20.30;99.90;;;;;;5080668;28;20051;-76
2022/08/03 05:31:56;;;;;;;8.32;5.55;;;20.30;99.90;;;;;;5075588;28;20044;-76
2022/08/03 05:34:21;;;;;;;13.32;5.63;;;20.40;99.90;;;;;;5100491;28;20036;-76
2022/08/03 05:36:47;;;;;;;13.45;6.03;;;20.40;99.90;;;;;;5069455;28;20542;-77
2022/08/03 05:39:13;;;;;;;12.38;5.43;;;20.50;99.90;;;;;;5069253;28;20044;-78
2022/08/03 05:41:39;;;;;;;11.35;5.07;;;20.60;99.90;;;;;;5095252;28;20418;-78
2022/08/03 05:44:05;;;;;;;18.05;5.57;;;20.60;99.90;;;;;;5096445;28;20047;-77
2022/08/03 05:46:31;;;;;;;12.68;5.63;;;20.60;99.90;;;;;;5100797;28;20108;-77
2022/08/03 05:48:56;;;;;;;13.55;5.90;;;20.70;99.90;;;;;;5080348;28;20447;-77
2022/08/03 05:51:22;;;;;;;11.15;5.43;;;20.70;99.90;;;;;;5087125;28;20161;-77
2022/08/03 05:53:48;;;;;;;12.80;5.65;;;20.80;99.90;;;;;;5073088;28;20100;-74
2022/08/03 05:56:14;;;;;;;11.70;5.78;;;20.80;99.90;;;;;;5070013;28;20071;-74
2022/08/03 05:58:40;;;;;;;10.18;6.07;;;20.90;99.90;;;;;;5099038;28;20081;-74
2022/08/03 06:01:05;;;;;;;12.67;6.03;;;21.00;99.90;;;;;;5076665;28;20059;-74
2022/08/03 06:03:31;;;;;;;10.27;5.43;;;21.00;99.90;;;;;;5095019;28;20036;-74
2022/08/03 06:05:57;;;;;;;13.88;5.95;;;21.10;99.90;;;;;;5098325;28;20028;-75
2022/08/03 06:08:23;;;;;;;12.98;6.13;;;21.10;99.90;;;;;;5088515;28;20056;-75
2022/08/03 06:10:49;;;;;;;12.77;6.07;;;21.10;99.90;;;;;;5078340;28;20040;-74
2022/08/03 06:13:15;;;;;;;12.00;6.00;;;21.20;99.90;;;;;;5092095;28;20055;-74
2022/08/03 06:15:41;;;;;;;13.10;6.15;;;21.20;99.90;;;;;;5092291;28;20113;-74
2022/08/03 06:18:07;;;;;;;10.67;5.60;;;21.20;99.90;;;;;;5088655;28;20360;-74
2022/08/03 06:20:33;;;;;;;19.20;5.20;;;21.30;99.90;;;;;;5095016;27;20769;-74
2022/08/03 06:22:59;;;;;;;14.57;6.20;;;21.30;99.90;;;;;;5098301;27;20169;-75
2022/08/03 06:25:25;;;;;;;13.07;5.53;;;21.30;99.90;;;;;;5083907;28;20043;-79
2022/08/03 06:27:51;;;;;;;11.75;5.85;;;21.40;99.90;;;;;;5107440;28;20048;-78
2022/08/03 06:30:17;;;;;;;13.48;6.82;;;21.40;99.90;;;;;;5098729;28;20054;-79
2022/08/03 06:32:43;;;;;;;11.98;5.50;;;21.40;99.90;;;;;;5089789;28;20091;-77
2022/08/03 06:35:09;;;;;;;14.05;6.30;;;21.40;99.90;;;;;;5075491;28;20491;-76
2022/08/03 06:37:46;;;;;;;14.57;5.65;;;21.50;99.90;;;;;;5104321;28;20524;-75
2022/08/03 06:40:13;;;;;;;15.82;5.90;;;21.50;99.90;;;;;;5102808;28;20489;-78
2022/08/03 06:42:40;;;;;;;13.50;5.25;;;21.50;99.90;;;;;;5108401;28;20044;-77
2022/08/03 06:45:07;;;;;;;14.47;4.83;;;21.60;99.90;;;;;;5111754;28;20479;-78
2022/08/03 06:47:35;;;;;;;16.30;5.10;;;21.60;99.90;;;;;;5098786;28;20056;-78
2022/08/03 06:50:00;;;;;;;14.25;4.82;;;21.70;99.90;;;;;;5096986;28;20394;-80
2022/08/03 06:52:29;;;;;;;15.18;4.45;;;21.70;99.90;;;;;;5074203;28;20051;-78
2022/08/03 06:54:56;;;;;;;12.68;4.32;;;21.80;99.90;;;;;;5076201;28;20054;-81
2022/08/03 06:57:22;;;;;;;13.73;4.70;;;21.90;99.90;;;;;;5101537;28;20039;-82
2022/08/03 06:59:48;;;;;;;13.80;5.30;;;22.00;99.90;;;;;;5109254;28;20036;-82
2022/08/03 07:02:13;;;;;;;13.07;4.65;;;22.10;99.90;;;;;;5101690;28;20574;-82
2022/08/03 07:04:39;;;;;;;13.23;4.45;;;22.10;99.90;;;;;;5092761;28;20059;-80
2022/08/03 07:07:05;;;;;;;13.02;4.80;;;22.20;99.90;;;;;;5091929;28;20044;-80
2022/08/03 07:09:31;;;;;;;19.50;4.50;;;22.30;99.90;;;;;;5089784;28;20039;-81
2022/08/03 07:11:57;;;;;;;14.75;4.38;;;22.30;99.90;;;;;;5079922;28;20554;-80
2022/08/03 07:14:23;;;;;;;13.80;4.60;;;22.40;99.90;;;;;;5108829;28;20036;-80
2022/08/03 07:16:48;;;;;;;13.52;4.35;;;22.40;99.90;;;;;;5099649;28;20047;-80
2022/08/03 07:19:15;;;;;;;15.07;4.13;;;22.50;99.90;;;;;;5104945;28;20040;-79
2022/08/03 07:21:40;;;;;;;13.73;3.85;;;22.60;99.90;;;;;;5104970;28;20047;-79
2022/08/03 07:24:06;;;;;;;19.83;4.45;;;22.70;99.90;;;;;;5098187;28;20103;-83
2022/08/03 07:26:32;;;;;;;13.45;3.60;;;22.80;99.90;;;;;;5086744;28;20047;-85
2022/08/03 07:28:59;;;;;;;14.57;4.15;;;22.80;99.90;;;;;;5086469;28;20036;-83
2022/08/03 07:31:25;;;;;;;11.60;3.60;;;22.90;99.90;;;;;;5106308;28;20043;-80
2022/08/03 07:33:51;;;;;;;14.15;4.10;;;23.00;99.90;;;;;;5099698;28;20035;-80
2022/08/03 07:36:16;;;;;;;14.68;3.80;;;23.00;99.90;;;;;;5095830;28;20048;-82
2022/08/03 07:38:42;;;;;;;15.60;4.10;;;23.00;99.90;;;;;;5072290;28;20040;-82
2022/08/03 07:41:07;;;;;;;13.80;3.40;;;23.00;99.90;;;;;;5095862;27;20044;-81
2022/08/03 07:43:33;;;;;;;12.43;3.22;;;23.00;99.90;;;;;;5127146;27;20058;-80
2022/08/03 07:45:59;;;;;;;14.50;3.42;;;23.10;99.90;;;;;;5106566;28;20439;-80
2022/08/03 07:48:24;;;;;;;15.18;3.47;;;23.10;99.90;;;;;;5106794;28;20093;-80
2022/08/03 07:50:51;;;;;;;18.92;3.70;;;23.10;99.90;;;;;;5103063;28;20039;-81
2022/08/03 07:53:17;;;;;;;13.98;3.95;;;23.10;99.90;;;;;;5110019;28;20509;-82
2022/08/03 07:55:43;;;;;;;16.00;4.05;;;23.20;99.90;;;;;;5110324;28;20035;-81
2022/08/03 07:58:16;;;;;;;15.23;4.97;;;23.30;99.90;;;;;;5108808;28;20054;-81
2022/08/03 08:00:43;;;;;;;15.80;4.50;;;23.30;99.90;;;;;;5109977;28;20070;-81
2022/08/03 08:03:10;;;;;;;16.70;3.65;;;23.40;99.90;;;;;;5098929;28;20406;-81
2022/08/03 08:05:36;;;;;;;21.02;5.55;;;23.40;99.90;;;;;;5089480;28;20033;-81
2022/08/03 08:08:02;;;;;;;13.88;3.80;;;23.50;99.90;;;;;;5100382;28;20043;-79
2022/08/03 08:10:28;;;;;;;15.87;3.83;;;23.60;99.90;;;;;;5109278;28;20127;-82
2022/08/03 08:12:55;;;;;;;17.42;4.00;;;23.60;99.90;;;;;;5109128;28;20482;-81
2022/08/03 08:15:21;;;;;;;17.27;4.20;;;23.70;99.90;;;;;;5104388;28;20043;-81
2022/08/03 08:17:53;;;;;;;17.10;4.20;;;23.80;99.90;;;;;;5097669;28;20040;-83
2022/08/03 08:20:42;;;;;;;12.95;3.67;;;23.90;99.90;;;;;;5081565;28;20042;-79
2022/08/03 08:23:26;;;;;;;15.85;3.38;;;24.00;99.90;;;;;;5081405;28;20040;-78
2022/08/03 08:25:52;;;;;;;17.00;3.65;;;24.00;99.90;;;;;;5070788;28;20141;-77
2022/08/03 08:28:21;;;;;;;12.68;3.45;;;24.00;99.90;;;;;;5065645;28;20128;-77
2022/08/03 08:30:47;;;;;;;18.52;4.10;;;24.00;99.90;;;;;;5058758;28;20108;-78
2022/08/03 08:33:13;;;;;;;14.60;3.80;;;24.00;99.90;;;;;;5057111;28;20047;-76
2022/08/03 08:35:38;;;;;;;22.58;3.60;;;24.10;99.90;;;;;;5078689;28;20094;-79
2022/08/03 08:38:04;;;;;;;17.42;4.03;;;24.20;99.90;;;;;;5064898;28;20810;-78
2022/08/03 08:40:30;;;;;;;18.83;3.58;;;24.30;99.90;;;;;;5084592;28;20098;-79
2022/08/03 08:42:55;;;;;;;16.77;3.90;;;24.30;99.90;;;;;;5079014;28;20044;-78
2022/08/03 08:45:21;;;;;;;16.08;3.80;;;24.40;99.90;;;;;;5067786;28;20937;-79
2022/08/03 08:47:50;;;;;;;15.63;3.80;;;24.50;99.90;;;;;;5079583;28;20774;-79
2022/08/03 08:50:19;;;;;;;19.15;3.95;;;24.50;99.90;;;;;;5079787;28;20074;-78
2022/08/03 08:52:47;;;;;;;15.68;3.60;;;24.60;99.90;;;;;;5082543;28;21970;-81
2022/08/03 08:55:17;;;;;;;19.10;3.97;;;24.60;99.90;;;;;;5080590;28;20077;-80
2022/08/03 08:57:55;;;;;;;16.95;3.33;;;24.70;99.90;;;;;;5083751;28;20036;-79
2022/08/03 09:00:33;;;;;;;15.63;3.80;;;24.80;99.90;;;;;;5081642;28;20044;-80
2022/08/03 09:03:06;;;;;;;16.80;3.60;;;24.90;99.90;;;;;;5083438;28;20574;-79
2022/08/03 09:05:43;;;;;;;17.73;3.67;;;25.00;99.90;;;;;;5079820;28;20500;-79
2022/08/03 09:08:09;;;;;;;15.65;3.63;;;25.10;99.90;;;;;;5062094;28;20493;-80
2022/08/03 09:10:35;;;;;;;15.40;4.03;;;25.20;99.90;;;;;;5066493;28;20054;-80
2022/08/03 09:13:01;;;;;;;18.70;4.03;;;25.20;99.90;;;;;;5085824;28;20414;-80
2022/08/03 09:15:30;;;;;;;18.67;3.55;;;25.20;99.90;;;;;;5069305;28;20448;-80
2022/08/03 09:18:05;;;;;;;18.67;3.67;;;25.30;99.90;;;;;;5081084;28;20044;-80
2022/08/03 09:20:35;;;;;;;23.55;3.38;;;25.40;99.90;;;;;;5082110;28;20044;-79
2022/08/03 09:23:03;;;;;;;16.42;3.53;;;25.50;99.90;;;;;;5081197;28;21274;-81
2022/08/03 09:25:44;;;;;;;15.02;4.20;;;25.60;99.90;;;;;;5083398;28;20048;-80
2022/08/03 09:28:17;;;;;;;19.85;4.13;;;25.70;99.90;;;;;;5082328;28;20048;-80
2022/08/03 09:30:57;;;;;;;17.67;3.42;;;25.70;99.90;;;;;;5084486;28;20209;-81
2022/08/03 09:33:23;;;;;;;12.23;3.30;;;25.80;99.90;;;;;;5080606;28;20039;-79
2022/08/03 09:35:49;;;;;;;15.67;3.30;;;25.80;99.90;;;;;;5078762;28;20119;-81
2022/08/03 09:38:24;;;;;;;16.27;3.43;;;25.90;99.90;;;;;;5080504;28;20830;-82
2022/08/03 09:40:51;;;;;;;19.38;3.63;;;25.90;99.90;;;;;;5056552;28;20169;-81
2022/08/03 09:43:17;;;;;;;17.33;3.30;;;25.90;99.90;;;;;;5078157;28;20036;-78
2022/08/03 09:45:43;;;;;;;16.13;3.53;;;26.00;99.90;;;;;;5092685;28;20036;-78
2022/08/03 09:48:27;;;;;;;20.75;3.55;;;26.00;99.90;;;;;;5082673;28;20101;-78
2022/08/03 09:50:54;;;;;;;17.38;3.60;;;26.10;99.90;;;;;;5077918;28;20040;-78
2022/08/03 09:53:21;;;;;;;13.77;3.42;;;26.10;99.90;;;;;;5085495;28;20084;-81
2022/08/03 09:55:58;;;;;;;25.15;3.85;;;26.20;99.90;;;;;;5064507;28;21325;-80
2022/08/03 09:58:26;;;;;;;19.67;3.88;;;26.30;99.90;;;;;;5089057;28;20335;-81
2022/08/03 10:01:04;;;;;;;21.35;3.83;;;26.30;99.90;;;;;;5083602;28;20052;-83
2022/08/03 10:03:33;;;;;;;17.52;3.40;;;26.40;99.90;;;;;;5083589;28;20127;-77
2022/08/03 10:06:21;;;;;;;17.52;3.83;;;26.50;99.90;;;;;;5082457;28;20047;-77
2022/08/03 10:09:10;;;;;;;13.35;3.15;;;26.50;99.90;;;;;;5091306;28;20170;-77
2022/08/03 10:11:37;;;;;;;16.17;3.25;;;26.60;99.90;;;;;;5086003;28;20039;-75
2022/08/03 10:14:04;;;;;;;;;;;26.70;99.90;;;;;;5069652;28;20069;-76
2022/08/03 10:16:35;;;;;;;14.68;2.88;;;26.80;99.90;;;;;;5063109;28;19935;-76
2022/08/03 10:19:03;;;;;;;19.20;3.92;;;26.90;99.90;;;;;;5062815;28;20051;-79
2022/08/03 10:21:32;;;;;;;19.95;3.17;;;26.90;99.90;;;;;;5058373;28;20051;-73
2022/08/03 10:24:01;;;;;;;18.65;3.58;;;27.00;99.90;;;;;;5062655;28;20482;-74
2022/08/03 10:26:30;;;;;;;20.38;3.63;;;27.00;99.90;;;;;;5066204;28;20090;-77
2022/08/03 10:29:00;;;;;;;18.30;3.63;;;27.00;99.90;;;;;;5059897;28;20046;-78
2022/08/03 10:31:33;;;;;;;18.60;2.97;;;27.10;99.90;;;;;;5065103;28;20486;-78
2022/08/03 10:34:01;;;;;;;17.55;3.55;;;27.20;99.90;;;;;;5063722;28;20080;-78
2022/08/03 10:36:30;;;;;;;19.77;3.35;;;27.20;99.90;;;;;;5063044;28;20514;-78
2022/08/03 10:38:56;;;;;;;22.38;3.45;;;27.30;99.90;;;;;;5064068;28;20036;-78
2022/08/03 10:41:30;;;;;;;21.60;3.83;;;27.30;99.90;;;;;;5062978;28;20635;-79
2022/08/03 10:43:58;;;;;;;18.58;3.67;;;27.40;99.90;;;;;;5060961;28;20052;-79
2022/08/03 10:46:26;;;;;;;20.00;3.63;;;27.50;99.90;;;;;;5061554;28;20550;-78
2022/08/03 10:48:52;;;;;;;19.67;4.32;;;27.50;99.90;;;;;;5065287;28;20056;-79
2022/08/03 10:51:19;;;;;;;20.60;3.60;;;27.60;99.60;;;;;;5074179;28;20040;-82
2022/08/03 10:53:46;;;;;;;20.30;3.63;;;27.60;99.80;;;;;;5075117;28;20047;-82
2022/08/03 10:59:15;;;;;;;22.17;4.28;;;27.80;99.90;;;;;;5067377;28;20479;-78
2022/08/03 11:01:55;;;;;;;19.63;3.97;;;28.00;99.50;;;;;;5070702;28;20051;-81
2022/08/03 11:04:23;;;;;;;12.60;3.10;;;28.00;98.60;;;;;;5066986;28;20306;-83
2022/08/03 11:07:14;;;;;;;17.73;4.13;;;28.10;98.70;;;;;;5061794;28;20101;-80
2022/08/03 11:09:51;;;;;;;13.75;3.10;;;28.20;98.60;;;;;;5067953;28;20036;-79
2022/08/03 11:12:23;;;;;;;;;;;28.20;99.10;;;;;;5068485;28;20052;-81
2022/08/03 11:14:49;;;;;;;18.25;3.55;;;28.30;97.40;;;;;;5080893;28;19927;-78
2022/08/03 11:17:16;;;;;;;21.17;4.13;;;28.30;98.20;;;;;;5081995;28;20155;-84
2022/08/03 11:19:46;;;;;;;22.10;3.65;;;28.40;98.50;;;;;;5070715;28;20048;-82
2022/08/03 11:22:12;;;;;;;20.50;3.58;;;28.40;97.30;;;;;;5097662;28;20135;-81
2022/08/03 11:24:42;;;;;;;19.55;3.50;;;28.50;95.80;;;;;;5107449;28;20109;-78
2022/08/03 11:27:17;;;;;;;13.15;3.42;;;28.60;92.80;;;;;;5071283;28;20056;-78
2022/08/03 11:30:30;;;;;;;22.10;3.80;;;28.60;91.80;;;;;;5101602;28;20055;-78
2022/08/03 11:32:57;;;;;;;12.32;3.10;;;28.60;94.20;;;;;;5063657;28;20044;-78
2022/08/03 11:35:24;;;;;;;;;;;28.80;93.60;;;;;;5082102;28;20577;-79
2022/08/03 11:37:59;;;;;;;17.52;3.80;;;28.80;97.20;;;;;;5087551;28;19919;-78
2022/08/03 11:40:39;;;;;;;19.83;3.92;;;28.90;93.80;;;;;;5090707;28;20109;-78
2022/08/03 11:43:29;;;;;;;15.00;3.15;;;29.00;94.10;;;;;;5085411;28;20046;-79
2022/08/03 11:46:02;;;;;;;20.30;3.47;;;29.10;96.20;;;;;;5087919;28;20043;-80
2022/08/03 11:48:33;;;;;;;16.48;4.30;;;29.20;92.90;;;;;;5101265;28;20036;-79
2022/08/03 11:51:19;;;;;;;20.25;4.18;;;29.20;92.90;;;;;;5078290;28;20048;-79
2022/08/03 11:53:48;;;;;;;15.90;3.47;;;29.30;92.70;;;;;;5101711;27;20549;-79
2022/08/03 11:56:13;;;;;;;19.83;3.80;;;29.30;94.20;;;;;;5101328;28;20039;-79
2022/08/03 11:58:51;;;;;;;20.53;3.70;;;29.50;94.00;;;;;;5106148;28;20036;-80
2022/08/03 12:01:18;;;;;;;20.30;3.47;;;29.50;91.70;;;;;;5102484;28;20036;-81
2022/08/03 12:03:44;;;;;;;21.98;3.70;;;29.60;85.80;;;;;;5109419;28;20118;-80
2022/08/03 12:06:11;;;;;;;17.07;3.20;;;29.60;82.10;;;;;;5101322;28;20142;-84
2022/08/03 12:08:38;;;;;;;15.52;4.03;;;29.60;82.00;;;;;;5110527;28;20046;-84
2022/08/03 12:11:06;;;;;;;23.15;4.70;;;29.70;80.40;;;;;;5086429;28;20043;-82
2022/08/03 12:13:58;;;;;;;20.83;3.63;;;29.70;82.10;;;;;;5101638;27;20056;-81
2022/08/03 12:16:27;;;;;;;20.95;3.90;;;29.70;80.50;;;;;;5103985;28;20051;-80
2022/08/03 12:19:11;;;;;;;15.48;3.22;;;29.80;82.00;;;;;;5092103;28;20401;-82
2022/08/03 12:21:48;;;;;;;28.40;4.55;;;29.90;84.30;;;;;;5097290;28;20043;-83
2022/08/03 12:24:14;;;;;;;20.80;4.00;;;29.90;85.70;;;;;;5093558;28;20040;-81
2022/08/03 12:26:48;;;;;;;21.53;3.87;;;30.00;84.30;;;;;;5075248;28;20044;-82
2022/08/03 12:29:17;;;;;;;19.38;4.25;;;30.10;83.70;;;;;;5102500;28;20039;-80
2022/08/03 12:31:43;;;;;;;19.10;3.92;;;30.10;81.40;;;;;;5100494;28;20102;-79
2022/08/03 12:34:10;;;;;;;20.40;4.00;;;30.10;73.90;;;;;;5081027;28;20061;-82
2022/08/03 12:36:36;;;;;;;19.90;3.83;;;30.10;73.50;;;;;;5107529;28;20085;-82
2022/08/03 12:39:06;;;;;;;25.90;4.50;;;30.20;71.20;;;;;;5100947;28;20176;-81
2022/08/03 12:41:59;;;;;;;20.52;4.45;;;30.20;71.30;;;;;;5100843;28;20095;-79
2022/08/03 12:44:57;;;;;;;16.40;3.33;;;30.20;68.70;;;;;;5096414;28;20073;-80
2022/08/03 12:47:23;;;;;;;17.20;3.53;;;30.20;69.00;;;;;;5093739;28;20058;-84
2022/08/03 12:49:51;;;;;;;21.17;3.00;;;30.30;69.30;;;;;;5099890;28;20040;-82
2022/08/03 12:52:18;;;;;;;18.73;3.30;;;30.30;62.40;;;;;;5097215;28;20466;-80
2022/08/03 12:54:59;;;;;;;14.02;2.83;;;30.40;63.70;;;;;;5085470;28;20051;-78
2022/08/03 12:57:38;;;;;;;23.08;3.58;;;30.40;67.10;;;;;;5108657;28;20048;-78
2022/08/03 13:00:16;;;;;;;16.73;3.58;;;30.50;63.40;;;;;;5108026;28;20085;-79
2022/08/03 13:02:44;;;;;;;18.10;3.90;;;30.60;65.50;;;;;;5077732;28;20147;-76
2022/08/03 13:05:14;;;;;;;14.63;3.70;;;30.60;65.10;;;;;;5093557;28;20039;-78